createdAt,value
2018-12-27T00:02:54.936Z,46.00
2018-12-27T00:06:17.408Z,44.30
2018-12-27T00:09:39.935Z,45.77
2018-12-27T00:13:02.412Z,44.27
2018-12-27T00:16:24.892Z,44.73
2018-12-27T00:19:47.087Z,42.83
2018-12-27T00:23:09.908Z,43.80
2018-12-27T00:26:32.622Z,42.10
2018-12-27T00:29:55.236Z,44.00
2018-12-27T00:33:17.914Z,41.13
2018-12-27T00:36:40.474Z,42.60
2018-12-27T00:40:03.075Z,41.90
2018-12-27T00:43:26.030Z,42.50
2018-12-27T00:46:48.689Z,43.13
2018-12-27T00:50:11.414Z,42.70
2018-12-27T00:53:34.446Z,41.20
2018-12-27T00:56:57.235Z,43.80
2018-12-27T01:00:20.219Z,40.13
2018-12-27T01:03:43.202Z,39.93
2018-12-27T01:07:05.547Z,41.70
2018-12-27T01:10:28.344Z,39.37
2018-12-27T01:13:51.052Z,38.50
2018-12-27T01:17:13.689Z,38.90
2018-12-27T01:20:35.936Z,38.70
2018-12-27T01:23:58.720Z,40.33
2018-12-27T01:27:21.376Z,41.03
2018-12-27T01:30:44.173Z,39.47
2018-12-27T01:34:06.561Z,37.40
2018-12-27T01:37:29.202Z,37.83
2018-12-27T01:40:51.746Z,39.20
2018-12-27T01:44:14.045Z,36.97
2018-12-27T01:47:36.571Z,36.97
2018-12-27T01:50:58.886Z,37.97
2018-12-27T01:54:21.488Z,36.43
2018-12-27T01:57:44.124Z,37.97
2018-12-27T02:01:07.024Z,35.13
2018-12-27T02:04:29.580Z,36.43
2018-12-27T02:07:52.155Z,36.67
2018-12-27T02:11:14.782Z,34.27
2018-12-27T02:14:37.091Z,36.03
2018-12-27T02:17:59.787Z,39.30
2018-12-27T02:21:22.647Z,35.17
2018-12-27T02:24:45.271Z,34.60
2018-12-27T02:28:08.232Z,35.17
2018-12-27T02:31:30.626Z,34.87
2018-12-27T02:34:53.512Z,33.00
2018-12-27T02:38:16.208Z,32.83
2018-12-27T02:41:39.260Z,32.00
2018-12-27T02:45:01.793Z,31.20
2018-12-27T02:48:24.495Z,30.07
2018-12-27T02:51:47.342Z,28.90
2018-12-27T02:55:09.704Z,29.90
2018-12-27T02:58:32.218Z,31.63
2018-12-27T03:01:54.804Z,30.03
2018-12-27T03:05:17.524Z,30.37
2018-12-27T03:08:40.283Z,30.57
2018-12-27T03:12:02.577Z,31.33
2018-12-27T03:15:25.268Z,31.43
2018-12-27T03:18:47.770Z,31.17
2018-12-27T03:22:10.054Z,31.00
2018-12-27T03:25:32.260Z,28.57
2018-12-27T03:28:54.736Z,29.53
2018-12-27T03:32:17.029Z,29.73
2018-12-27T03:35:39.507Z,43.60
2018-12-27T03:39:02.185Z,30.83
2018-12-27T03:42:24.758Z,30.00
2018-12-27T03:45:47.296Z,29.97
2018-12-27T03:49:09.842Z,29.70
2018-12-27T03:52:32.376Z,29.00
2018-12-27T03:55:55.362Z,29.30
2018-12-27T03:59:17.925Z,30.20
2018-12-27T04:02:40.733Z,28.07
2018-12-27T04:06:03.143Z,26.37
2018-12-27T04:09:25.810Z,26.17
2018-12-27T04:12:48.457Z,24.70
2018-12-27T04:16:11.066Z,25.40
2018-12-27T04:19:33.637Z,26.10
2018-12-27T04:22:56.612Z,25.30
2018-12-27T04:26:19.392Z,25.37
2018-12-27T04:29:41.644Z,25.00
2018-12-27T04:33:10.143Z,26.60
2018-12-27T04:36:32.689Z,24.20
2018-12-27T04:39:55.213Z,24.33
2018-12-27T04:43:18.612Z,25.43
2018-12-27T04:46:41.056Z,26.07
2018-12-27T04:50:04.205Z,25.87
2018-12-27T04:53:26.701Z,26.80
2018-12-27T04:56:49.156Z,27.43
2018-12-27T05:00:12.741Z,26.00
2018-12-27T05:03:35.501Z,24.93
2018-12-27T05:06:58.274Z,23.83
2018-12-27T05:10:21.148Z,23.10
2018-12-27T05:13:43.708Z,22.47
2018-12-27T05:17:06.404Z,23.07
2018-12-27T05:20:29.117Z,19.77
2018-12-27T05:23:51.761Z,20.73
2018-12-27T05:27:14.377Z,21.33
2018-12-27T05:30:37.231Z,21.37
2018-12-27T05:34:00.114Z,21.17
2018-12-27T05:37:22.457Z,19.73
2018-12-27T05:40:45.184Z,18.80
2018-12-27T05:44:07.532Z,22.13
2018-12-27T05:47:29.906Z,19.93
2018-12-27T05:50:52.004Z,19.67
2018-12-27T05:54:14.041Z,19.30
2018-12-27T05:57:36.395Z,20.40
2018-12-27T06:00:58.713Z,18.90
2018-12-27T06:04:20.868Z,19.80
2018-12-27T06:07:43.556Z,19.23
2018-12-27T06:11:05.705Z,18.00
2018-12-27T06:14:27.876Z,16.67
2018-12-27T06:17:50.028Z,16.83
2018-12-27T06:21:12.191Z,18.10
2018-12-27T06:24:34.620Z,17.27
2018-12-27T06:27:57.046Z,16.33
2018-12-27T06:31:19.659Z,16.50
2018-12-27T06:34:41.968Z,16.83
2018-12-27T06:38:04.616Z,16.80
2018-12-27T06:41:27.268Z,17.13
2018-12-27T06:44:49.898Z,17.27
2018-12-27T06:48:12.465Z,18.13
2018-12-27T06:51:35.121Z,16.13
2018-12-27T06:54:57.616Z,15.80
2018-12-27T06:58:20.264Z,15.83
2018-12-27T07:01:42.605Z,13.80
2018-12-27T07:05:05.499Z,15.23
2018-12-27T07:08:27.843Z,15.27
2018-12-27T07:11:49.920Z,14.20
2018-12-27T07:15:12.531Z,14.63
2018-12-27T07:18:34.616Z,15.57
2018-12-27T07:21:57.468Z,16.57
2018-12-27T07:25:19.845Z,16.10
2018-12-27T07:28:42.180Z,16.33
2018-12-27T07:32:04.524Z,16.03
2018-12-27T07:35:27.231Z,17.10
2018-12-27T07:38:49.707Z,17.50
2018-12-27T07:42:12.201Z,17.13
2018-12-27T07:45:34.562Z,17.27
2018-12-27T07:48:57.017Z,18.40
2018-12-27T07:52:19.732Z,17.50
2018-12-27T07:55:42.340Z,17.17
2018-12-27T07:59:04.868Z,16.87
2018-12-27T08:02:27.532Z,17.90
2018-12-27T08:05:50.097Z,17.03
2018-12-27T08:09:12.728Z,17.40
2018-12-27T08:12:35.598Z,18.47
2018-12-27T08:15:58.208Z,18.63
2018-12-27T08:19:20.981Z,20.30
2018-12-27T08:22:43.478Z,18.57
2018-12-27T08:26:05.804Z,21.43
2018-12-27T08:29:28.085Z,19.47
2018-12-27T08:32:50.608Z,20.33
2018-12-27T08:36:13.319Z,20.97
2018-12-27T08:39:35.737Z,20.80
2018-12-27T08:42:58.198Z,20.90
2018-12-27T08:46:20.584Z,21.33
2018-12-27T08:49:43.020Z,22.43
2018-12-27T08:53:05.632Z,22.23
2018-12-27T08:56:28.017Z,23.13
2018-12-27T08:59:50.208Z,26.33
2018-12-27T09:03:12.669Z,22.97
2018-12-27T09:06:35.290Z,22.10
2018-12-27T09:09:57.448Z,25.07
2018-12-27T09:13:20.293Z,22.90
2018-12-27T09:16:42.808Z,23.37
2018-12-27T09:20:06.065Z,23.13
2018-12-27T09:23:28.436Z,24.07
2018-12-27T09:26:50.864Z,24.50
2018-12-27T09:30:13.385Z,24.80
2018-12-27T09:33:35.704Z,25.93
2018-12-27T09:36:58.370Z,25.07
2018-12-27T09:40:21.201Z,23.13
2018-12-27T09:43:44.067Z,22.50
2018-12-27T09:47:06.669Z,25.17
2018-12-27T09:50:29.364Z,23.63
2018-12-27T09:53:51.853Z,25.17
2018-12-27T09:57:14.467Z,22.83
2018-12-27T10:00:37.121Z,21.67
2018-12-27T10:03:59.681Z,24.40
2018-12-27T10:07:22.021Z,22.90
2018-12-27T10:10:44.680Z,24.53
2018-12-27T10:14:07.335Z,24.67
2018-12-27T10:17:29.957Z,24.07
2018-12-27T10:20:52.717Z,25.70
2018-12-27T10:24:15.212Z,25.63
2018-12-27T10:27:37.730Z,25.73
2018-12-27T10:31:00.203Z,22.27
2018-12-27T10:34:22.661Z,23.53
2018-12-27T10:37:44.968Z,24.77
2018-12-27T10:41:07.189Z,23.53
2018-12-27T10:44:29.659Z,22.03
2018-12-27T10:47:52.176Z,25.00
2018-12-27T10:51:14.255Z,21.97
2018-12-27T10:54:36.688Z,21.80
2018-12-27T10:57:59.496Z,23.20
2018-12-27T11:01:21.734Z,22.47
2018-12-27T11:04:44.659Z,20.53
2018-12-27T11:08:07.329Z,21.03
2018-12-27T11:11:29.973Z,22.37
2018-12-27T11:14:53.677Z,21.53
2018-12-27T11:18:16.417Z,20.67
2018-12-27T11:21:39.000Z,21.57
2018-12-27T11:25:01.602Z,20.47
2018-12-27T11:28:24.132Z,19.83
2018-12-27T11:31:46.857Z,20.17
2018-12-27T11:35:09.279Z,20.33
2018-12-27T11:38:31.441Z,19.13
2018-12-27T11:41:53.788Z,20.97
2018-12-27T11:45:15.884Z,20.93
2018-12-27T11:48:38.307Z,20.10
2018-12-27T11:52:00.757Z,20.83
2018-12-27T11:55:23.428Z,20.90
2018-12-27T11:58:45.813Z,19.00
2018-12-27T12:02:08.264Z,19.50
2018-12-27T12:05:30.612Z,19.67
2018-12-27T12:08:53.021Z,20.13
2018-12-27T12:12:15.626Z,20.50
2018-12-27T12:15:38.115Z,20.10
2018-12-27T12:19:00.506Z,22.43
2018-12-27T12:22:23.000Z,23.37
2018-12-27T12:25:45.490Z,21.10
2018-12-27T12:29:08.284Z,20.20
2018-12-27T12:32:30.457Z,21.83
2018-12-27T12:35:53.402Z,21.90
2018-12-27T12:39:16.238Z,21.00
2018-12-27T12:42:39.097Z,20.87
2018-12-27T12:46:01.812Z,21.37
2018-12-27T12:49:24.440Z,21.73
2018-12-27T12:52:46.688Z,22.10
2018-12-27T12:56:09.276Z,20.97
2018-12-27T12:59:31.680Z,21.07
2018-12-27T13:02:53.829Z,20.40
2018-12-27T13:06:18.189Z,21.03
2018-12-27T13:09:40.070Z,19.17
2018-12-27T13:13:02.810Z,19.83
2018-12-27T13:16:25.109Z,18.60
2018-12-27T13:19:47.863Z,20.53
2018-12-27T13:23:09.992Z,19.23
2018-12-27T13:26:32.577Z,18.67
2018-12-27T13:29:55.092Z,19.70
2018-12-27T13:33:17.363Z,17.83
2018-12-27T13:36:40.837Z,19.00
2018-12-27T13:40:03.420Z,22.27
2018-12-27T13:43:26.029Z,22.57
2018-12-27T13:46:48.412Z,20.27
2018-12-27T13:50:11.068Z,20.73
2018-12-27T13:53:33.765Z,20.07
2018-12-27T13:56:56.246Z,21.33
2018-12-27T14:00:19.555Z,21.87
2018-12-27T14:03:42.055Z,21.60
2018-12-27T14:07:04.578Z,19.93
2018-12-27T14:10:27.361Z,22.07
2018-12-27T14:13:50.017Z,20.40
2018-12-27T14:17:12.552Z,20.60
2018-12-27T14:20:35.036Z,20.23
2018-12-27T14:23:57.598Z,21.27
2018-12-27T14:27:19.940Z,22.07
2018-12-27T14:30:42.681Z,21.10
2018-12-27T14:34:05.527Z,20.80
2018-12-27T14:37:28.137Z,20.83
2018-12-27T14:40:50.968Z,21.13
2018-12-27T14:44:14.454Z,22.80
2018-12-27T14:47:37.574Z,21.73
2018-12-27T14:51:00.427Z,21.53
2018-12-27T14:54:23.012Z,22.67
2018-12-27T14:57:45.317Z,23.23
2018-12-27T15:01:07.727Z,22.63
2018-12-27T15:04:29.869Z,22.23
2018-12-27T15:07:52.298Z,22.10
2018-12-27T15:11:14.679Z,22.30
2018-12-27T15:14:37.039Z,21.37
2018-12-27T15:17:59.392Z,21.80
2018-12-27T15:21:22.055Z,23.40
2018-12-27T15:24:44.638Z,22.33
2018-12-27T15:28:07.049Z,24.30
2018-12-27T15:31:29.398Z,23.07
2018-12-27T15:34:51.940Z,22.40
2018-12-27T15:38:14.381Z,23.53
2018-12-27T15:41:37.126Z,24.10
2018-12-27T15:44:59.672Z,25.07
2018-12-27T15:48:22.030Z,24.77
2018-12-27T15:51:44.444Z,24.90
2018-12-27T15:55:07.126Z,25.93
2018-12-27T15:58:29.696Z,25.00
2018-12-27T16:01:51.945Z,25.10
2018-12-27T16:05:14.714Z,25.83
2018-12-27T16:11:43.877Z,25.40
2018-12-27T16:15:06.725Z,25.70
2018-12-27T16:18:28.918Z,25.07
2018-12-27T16:21:51.364Z,24.37
2018-12-27T16:25:13.437Z,24.90
2018-12-27T16:28:35.848Z,27.43
2018-12-27T16:31:58.096Z,26.13
2018-12-27T16:35:20.273Z,26.00
2018-12-27T16:38:42.435Z,24.40
2018-12-27T16:42:04.535Z,26.27
2018-12-27T16:45:26.645Z,27.07
2018-12-27T16:48:48.805Z,27.80
2018-12-27T16:52:11.248Z,26.73
2018-12-27T16:55:33.178Z,25.00
2018-12-27T16:58:55.432Z,24.90
2018-12-27T17:02:17.792Z,25.53
2018-12-27T17:05:40.382Z,27.00
2018-12-27T17:09:02.920Z,24.93
2018-12-27T17:12:25.311Z,25.07
2018-12-27T17:15:47.318Z,26.40
2018-12-27T17:19:09.902Z,25.77
2018-12-27T17:22:32.004Z,25.27
2018-12-27T17:25:54.493Z,26.63
2018-12-27T17:29:16.707Z,26.50
2018-12-27T17:32:38.929Z,25.27
2018-12-27T17:36:01.092Z,26.33
2018-12-27T17:39:23.537Z,26.17
2018-12-27T17:42:45.712Z,26.47
2018-12-27T17:46:07.808Z,26.13
2018-12-27T17:49:30.009Z,24.40
2018-12-27T17:52:52.119Z,23.53
2018-12-27T17:56:14.328Z,24.63
2018-12-27T17:59:36.301Z,23.80
2018-12-27T18:02:58.560Z,24.30
2018-12-27T18:06:20.921Z,24.23
2018-12-27T18:09:43.247Z,22.37
2018-12-27T18:13:05.588Z,23.50
2018-12-27T18:16:27.846Z,22.53
2018-12-27T18:19:50.046Z,24.10
2018-12-27T18:23:11.960Z,22.37
2018-12-27T18:26:34.434Z,23.83
2018-12-27T18:29:56.825Z,23.13
2018-12-27T18:33:19.010Z,23.33
2018-12-27T18:36:41.202Z,23.20
2018-12-27T18:40:03.437Z,27.43
2018-12-27T18:43:25.914Z,23.83
2018-12-27T18:46:48.062Z,25.80
2018-12-27T18:50:10.262Z,24.00
2018-12-27T18:53:32.709Z,22.97
2018-12-27T18:56:55.231Z,22.13
2018-12-27T19:00:18.178Z,23.43
2018-12-27T19:03:40.760Z,20.77
2018-12-27T19:07:02.976Z,24.33
2018-12-27T19:10:24.961Z,23.80
2018-12-27T19:13:46.976Z,22.30
2018-12-27T19:17:18.790Z,22.37
2018-12-27T19:20:42.296Z,23.27
2018-12-27T19:24:04.453Z,22.67
2018-12-27T19:27:26.624Z,22.73
2018-12-27T19:30:48.824Z,24.27
2018-12-27T19:34:11.046Z,22.73
2018-12-27T19:37:32.952Z,21.83
2018-12-27T19:40:55.172Z,22.87
2018-12-27T19:44:17.410Z,23.90
2018-12-27T19:47:39.575Z,21.90
2018-12-27T19:51:02.095Z,22.07
2018-12-27T19:54:24.505Z,21.77
2018-12-27T19:57:46.909Z,21.10
2018-12-27T20:01:09.499Z,23.07
2018-12-27T20:04:31.696Z,24.40
2018-12-27T20:07:59.281Z,23.80
2018-12-27T20:11:17.641Z,24.00
2018-12-27T20:14:39.804Z,25.27
2018-12-27T20:18:01.969Z,24.67
2018-12-27T20:21:24.380Z,24.07
2018-12-27T20:24:46.939Z,24.80
2018-12-27T20:28:08.829Z,25.03
2018-12-27T20:31:31.270Z,24.00
2018-12-27T20:34:53.469Z,25.13
2018-12-27T20:38:15.572Z,25.53
2018-12-27T20:41:37.469Z,24.57
2018-12-27T20:44:59.367Z,24.67
2018-12-27T20:48:21.572Z,24.97
2018-12-27T20:51:43.844Z,27.07
2018-12-27T20:55:06.107Z,26.40
2018-12-27T20:58:28.649Z,27.43
2018-12-27T21:01:50.685Z,27.47
2018-12-27T21:05:16.187Z,27.03
2018-12-27T21:08:38.543Z,28.90
2018-12-27T21:12:01.218Z,28.47
2018-12-27T21:15:23.862Z,27.70
2018-12-27T21:18:45.869Z,27.23
2018-12-27T21:22:08.149Z,28.90
2018-12-27T21:25:30.333Z,29.20
2018-12-27T21:28:52.693Z,27.93
2018-12-27T21:32:14.575Z,30.03
2018-12-27T21:35:37.020Z,30.27
2018-12-27T21:38:59.449Z,32.00
2018-12-27T21:42:21.645Z,27.93
2018-12-27T21:45:43.809Z,28.67
2018-12-27T21:49:05.988Z,29.40
2018-12-27T21:52:28.113Z,27.73
2018-12-27T21:55:50.356Z,28.43
2018-12-27T21:59:12.637Z,29.27
2018-12-27T22:02:34.641Z,28.93
2018-12-27T22:05:56.852Z,30.10
2018-12-27T22:09:19.217Z,28.50
2018-12-27T22:12:41.444Z,29.50
2018-12-27T22:16:03.801Z,30.07
2018-12-27T22:19:26.350Z,30.80
2018-12-27T22:22:48.404Z,30.43
2018-12-27T22:26:10.553Z,31.03
2018-12-27T22:29:32.668Z,33.07
2018-12-27T22:32:54.789Z,31.50
2018-12-27T22:36:17.209Z,33.30
2018-12-27T22:39:39.376Z,31.50
2018-12-27T22:43:01.677Z,34.43
2018-12-27T22:46:23.790Z,34.27
2018-12-27T22:49:46.402Z,32.97
2018-12-27T22:53:08.484Z,31.80
2018-12-27T22:56:30.593Z,33.60
2018-12-27T22:59:52.702Z,36.40
2018-12-27T23:03:15.147Z,34.73
2018-12-27T23:06:37.340Z,34.77
2018-12-27T23:09:59.552Z,34.97
2018-12-27T23:13:21.904Z,35.43
2018-12-27T23:16:44.166Z,36.43
2018-12-27T23:20:06.442Z,38.00
2018-12-27T23:23:28.745Z,35.57
2018-12-27T23:26:51.253Z,37.13
2018-12-27T23:30:13.500Z,36.27
2018-12-27T23:33:35.709Z,37.40
2018-12-27T23:36:58.205Z,35.57
2018-12-27T23:40:20.041Z,36.63
2018-12-27T23:43:42.076Z,36.63
2018-12-27T23:47:04.252Z,35.97
2018-12-27T23:50:26.358Z,38.07
2018-12-27T23:53:48.832Z,35.97
2018-12-27T23:57:10.946Z,38.50
